Aérodrome :
LOGIN :

S'inscrire | Disclaimer

   EN    FR    IT 

 










Légende :    VFR   VFR Marginal   IFR   IFR Intensif   IFR Très Intensif
Visi : 
Plafond : 
>= 8 km
>= 3000ft
5 à 8 km
1000 à 3000 ft
1500m à 5 km
500 à 1000 ft
800 à 1500m
200 à 500 ft
< 800m
< 200 ft
Symboles :   Orages  Brouillard  Fortes neiges  Fortes précipitations  Vent > 20 kt
SIGMETs :   Divers  Orages  Givrage  Turbulence  Onde Orograph.  Cendres Volcan.







- Altitude de l'aérodrome : 935 ft


EBFS - Florennes

DERNIER METAR :
  • 261725Z AUTO 01010KT 8000 NCD 25/19 Q1024 BLU

METARs EXPIRÉS :
  • 261723Z AUTO 36011KT 9999 NCD 25/19 Q1024 BLU
  • 261712Z AUTO 36012KT 7000 NCD 25/19 Q1024 WHT
  • 261655Z AUTO 36009KT 8000 NCD 25/20 Q1024 BLU
  • 261653Z AUTO 36009KT 8000 NCD 25/20 Q1024 BLU
  • 261642Z AUTO 36011KT 7000 NCD 25/20 Q1024 WHT
  • 261625Z AUTO 35010KT 9999 NCD 26/19 Q1024 BLU
  • 261555Z AUTO 35011KT 9999 NCD 26/20 Q1024 BLU
  • 261525Z AUTO 35010KT 9999 NCD 26/20 Q1025 BLU
  • 261455Z 36010KT 9999 FEW210 26/19 Q1025 BLU BLU

TAF TAF EBFS
Valide du 26 à 13h jusqu'au 26 à 22h UTC


261141Z 2613/2622 02010KT FEW210
Pas de NOTAMs connus pour ce terrain.



MET'MAP, la Météo Aéronautique d'un coup d'oeil ! - Copyright ORBIFLY Décembre 2007 - Disclaimer

ORBIFLY MET'MAP TEAM :

Programmation & Développement : Alexandra Zaïnal
Conception & Développement : Baudouin d'Aumeries
Co-Programmation & Développement : Marc-Olivier Méhu
Soutien technique & logistique : Manuel Goepfert

Contact : metmap@orbifly.com




SOURCES & CREDITS :

   NOAA